SBOSBO AGP / LEMG
Speedbird OnlineSpeedbird Online AGP / LEMG

Málaga Airport
21:32 28.5°C

Location Malaga, Spain
Latitude: 36.67490005493164
Longitude: -4.499110221862793
Web Airport Website | Wikipedia
Altitude 16 Meter / 53 Feet
Distance 1,690 KM / 1,050 Miles
from London.
Time Zone UTC +2 hours (Europe/Madrid)
Codes IATA: AGP
ICAO: LEMG
Currency £1 equals EUR 1.12
Runways
RunwayLength (m)Surface
122750Asphalt
133200Asphalt
302750Asphalt
313200Asphalt
Radio
TypeDescriptionFrequency
APPAPP Dep118.455
APPAPP Arr123.85
ATISATIS120.375
CLDCLR DEL121.88
GNDGND-W121.705
GNDGND-E121.95
TWRTWR-W (RWY 13-31)118.15
TWRTWR-E (RWY 12-30)118.775
Live ATC
METAR LEMG 241900Z 28007KT CAVOK 28/07 Q1009 NOSIG
TAF TAF LEMG 241700Z 2418/2518 07006KT CAVOK TX29/2513Z TN17/2506Z PROB40 TEMPO 2418/2421 VRB02KT BECMG 2420/2422 29006KT
Weather As Of 24 Sep 2022 21:32
Description Clear sky
Wind 18 km/h from West (293°)
Cloud Cover 0%
Precipitation Rain: none, Snow: none
Sunrise 08:07
Sunset 20:12
Lounges Sala VIP Lounge , Terminal 3
Rotations During the last 90 days there were
267 flights from LHR
123 flights from LGW
111 flights from LCY
23 flights from SOU
266 flights to LHR
123 flights to LGW
117 flights to LCY
22 flights to SOU
1 flights to STN


© 2017-2022 Speedbird Online